Time;durP1;ratioP1;P1;durP2;ratioP2;P2;SDS_P1;SDS_P2;PMS_P1;PMS_P2;Temp;Humidity;BMP_temperature;BMP_pressure;BME280_temperature;BME280_humidity;BME280_pressure;Samples;Min_cycle;Max_cycle;Signal;HPM_P1;HPM_P2
2023/04/19 00:01:56;;;;;;;33.78;13.98;;;;;;;;;;5046534;28;20029;-70
2023/04/19 00:04:22;;;;;;;31.55;14.02;;;;;;;;;;5041112;28;20076;-70
2023/04/19 00:06:47;;;;;;;31.88;14.32;;;;;;;;;;5028525;28;20033;-70
2023/04/19 00:09:12;;;;;;;31.95;13.93;;;;;;;;;;5042936;28;20037;-70
2023/04/19 00:11:38;;;;;;;30.80;13.93;;;;;;;;;;5045909;28;20052;-70
2023/04/19 00:14:03;;;;;;;30.30;13.75;;;;;;;;;;5040550;28;20119;-70
2023/04/19 00:16:29;;;;;;;32.15;14.25;;;;;;;;;;5036991;28;20068;-70
2023/04/19 00:18:54;;;;;;;27.77;13.98;;;;;;;;;;5031148;28;20035;-70
2023/04/19 00:21:20;;;;;;;35.60;15.68;;;;;;;;;;5035906;28;20112;-70
2023/04/19 00:23:45;;;;;;;27.83;12.95;;;;;;;;;;5026692;28;20037;-70
2023/04/19 00:26:14;;;;;;;28.58;13.48;;;;;;;;;;5041192;28;20616;-70
2023/04/19 00:28:39;;;;;;;33.75;14.38;;;;;;;;;;5027923;28;20041;-70
2023/04/19 00:31:05;;;;;;;33.55;13.40;;;;;;;;;;5040466;28;20037;-70
2023/04/19 00:33:31;;;;;;;27.08;11.65;;;;;;;;;;5045748;28;20032;-70
2023/04/19 00:35:57;;;;;;;29.88;12.88;;;;;;;;;;5044047;28;20028;-70
2023/04/19 00:38:22;;;;;;;31.40;13.73;;;;;;;;;;5043518;28;20036;-70
2023/04/19 00:40:47;;;;;;;33.50;14.02;;;;;;;;;;5044367;28;20399;-70
2023/04/19 00:43:19;;;;;;;33.33;13.50;;;;;;;;;;5045474;28;20170;-70
2023/04/19 00:45:45;;;;;;;30.20;13.90;;;;;;;;;;5026416;28;20521;-70
2023/04/19 00:48:12;;;;;;;31.55;13.30;;;;;;;;;;5028134;28;20013;-70
2023/04/19 00:50:37;;;;;;;30.45;13.20;;;;;;;;;;5031170;28;20124;-70
2023/04/19 00:53:03;;;;;;;34.78;13.93;;;;;;;;;;5039490;28;20112;-70
2023/04/19 00:55:28;;;;;;;35.42;14.25;;;;;;;;;;5025667;28;20037;-70
2023/04/19 00:57:54;;;;;;;32.20;14.35;;;;;;;;;;5028324;28;20171;-70
2023/04/19 01:00:19;;;;;;;32.00;13.18;;;;;;;;;;5036082;28;20031;-70
2023/04/19 01:02:45;;;;;;;28.00;13.15;;;;;;;;;;5026778;28;20033;-70
2023/04/19 01:05:10;;;;;;;31.75;12.80;;;;;;;;;;5034419;28;20046;-70
2023/04/19 01:07:36;;;;;;;32.03;13.10;;;;;;;;;;5033423;28;20049;-70
2023/04/19 01:10:01;;;;;;;29.55;13.27;;;;;;;;;;5046156;28;20040;-70
2023/04/19 01:12:26;;;;;;;32.92;13.95;;;;;;;;;;5042707;28;20029;-70
2023/04/19 01:14:52;;;;;;;31.55;13.77;;;;;;;;;;5038297;28;20037;-70
2023/04/19 01:17:18;;;;;;;30.42;13.30;;;;;;;;;;5024933;28;20123;-70
2023/04/19 01:19:44;;;;;;;33.95;13.43;;;;;;;;;;5042048;28;20158;-70
2023/04/19 01:22:18;;;;;;;28.00;13.23;;;;;;;;;;5040314;28;20037;-70
2023/04/19 01:24:43;;;;;;;30.88;13.75;;;;;;;;;;5044840;28;20080;-70
2023/04/19 01:27:09;;;;;;;31.25;13.43;;;;;;;;;;5037366;28;20057;-70
2023/04/19 01:29:34;;;;;;;30.17;14.18;;;;;;;;;;5044226;28;20518;-70
2023/04/19 01:31:59;;;;;;;28.70;13.15;;;;;;;;;;5043283;28;20059;-70
2023/04/19 01:34:25;;;;;;;26.58;11.43;;;;;;;;;;5044766;28;20198;-70
2023/04/19 01:36:50;;;;;;;32.78;13.50;;;;;;;;;;5042867;28;20079;-70
2023/04/19 01:39:16;;;;;;;34.42;13.48;;;;;;;;;;5032081;28;20677;-70
2023/04/19 01:41:41;;;;;;;30.65;13.25;;;;;;;;;;5043230;28;20053;-70
2023/04/19 01:44:06;;;;;;;30.10;13.30;;;;;;;;;;5043323;28;20041;-70
2023/04/19 01:46:31;;;;;;;31.25;12.98;;;;;;;;;;5044880;28;20041;-70
2023/04/19 01:48:57;;;;;;;30.20;13.52;;;;;;;;;;5044445;28;20064;-70
2023/04/19 01:51:22;;;;;;;30.50;13.73;;;;;;;;;;5047082;28;20407;-70
2023/04/19 01:53:52;;;;;;;29.67;13.55;;;;;;;;;;5042969;28;20099;-70
2023/04/19 01:56:18;;;;;;;29.33;13.27;;;;;;;;;;5034860;28;20038;-70
2023/04/19 01:58:43;;;;;;;30.05;13.75;;;;;;;;;;5029192;28;20033;-70
2023/04/19 02:01:11;;;;;;;30.63;12.55;;;;;;;;;;5040266;28;20429;-70
2023/04/19 02:03:37;;;;;;;32.17;14.10;;;;;;;;;;5045291;28;20053;-70
2023/04/19 02:06:02;;;;;;;29.30;13.30;;;;;;;;;;5048327;28;20053;-70
2023/04/19 02:08:28;;;;;;;35.70;13.57;;;;;;;;;;5029296;28;20046;-70
2023/04/19 02:10:53;;;;;;;29.85;13.13;;;;;;;;;;5036517;28;20132;-70
2023/04/19 02:13:18;;;;;;;29.60;13.10;;;;;;;;;;5030255;28;20037;-70
2023/04/19 02:15:43;;;;;;;28.70;12.63;;;;;;;;;;5032231;28;20631;-70
2023/04/19 02:18:10;;;;;;;31.88;13.63;;;;;;;;;;5049264;28;20107;-70
2023/04/19 02:20:35;;;;;;;30.83;13.50;;;;;;;;;;5044831;28;20044;-70
2023/04/19 02:23:01;;;;;;;29.30;12.05;;;;;;;;;;5034570;28;20037;-70
2023/04/19 02:25:26;;;;;;;28.13;12.65;;;;;;;;;;5041893;28;20518;-70
2023/04/19 02:27:52;;;;;;;33.65;14.15;;;;;;;;;;5044402;28;20029;-70
2023/04/19 02:30:18;;;;;;;30.17;12.90;;;;;;;;;;5045357;28;20029;-70
2023/04/19 02:32:43;;;;;;;33.67;13.32;;;;;;;;;;5048164;28;20029;-70
2023/04/19 02:35:08;;;;;;;30.95;12.98;;;;;;;;;;5044964;28;20044;-70
2023/04/19 02:37:34;;;;;;;29.40;12.43;;;;;;;;;;5030212;28;20033;-70
2023/04/19 02:39:59;;;;;;;33.97;13.30;;;;;;;;;;5038208;28;20033;-70
2023/04/19 02:42:24;;;;;;;30.55;12.73;;;;;;;;;;5047116;28;20138;-70
2023/04/19 02:44:49;;;;;;;28.92;12.60;;;;;;;;;;5048081;28;20099;-70
2023/04/19 02:47:15;;;;;;;28.33;13.02;;;;;;;;;;5046642;28;20072;-70
2023/04/19 02:49:41;;;;;;;31.08;12.57;;;;;;;;;;5041388;28;20447;-70
2023/04/19 02:52:07;;;;;;;30.60;12.88;;;;;;;;;;5040094;28;20036;-70
2023/04/19 02:54:33;;;;;;;31.60;13.13;;;;;;;;;;5027321;28;20040;-70
2023/04/19 02:56:58;;;;;;;29.80;13.30;;;;;;;;;;5026298;28;20022;-70
2023/04/19 02:59:23;;;;;;;32.40;13.10;;;;;;;;;;5034067;28;20079;-70
2023/04/19 03:01:49;;;;;;;29.88;12.80;;;;;;;;;;5033417;28;20057;-70
2023/04/19 03:04:15;;;;;;;23.25;10.88;;;;;;;;;;5043918;28;20063;-69
2023/04/19 03:06:41;;;;;;;35.05;12.95;;;;;;;;;;5046039;28;20037;-70
2023/04/19 03:09:06;;;;;;;30.02;13.40;;;;;;;;;;5027438;28;20437;-70
2023/04/19 03:11:31;;;;;;;28.67;12.43;;;;;;;;;;5040554;28;20128;-70
2023/04/19 03:13:57;;;;;;;31.45;13.15;;;;;;;;;;5040402;28;20034;-70
2023/04/19 03:16:22;;;;;;;33.38;14.13;;;;;;;;;;5038565;28;20037;-70
2023/04/19 03:18:47;;;;;;;27.73;12.63;;;;;;;;;;5044476;28;20079;-70
2023/04/19 03:21:12;;;;;;;32.15;13.75;;;;;;;;;;5032464;28;20443;-70
2023/04/19 03:23:38;;;;;;;35.25;14.13;;;;;;;;;;5040535;28;20029;-70
2023/04/19 03:26:03;;;;;;;29.85;13.23;;;;;;;;;;5037514;28;20556;-70
2023/04/19 03:28:28;;;;;;;32.80;13.00;;;;;;;;;;5045718;28;20040;-70
2023/04/19 03:30:54;;;;;;;32.40;13.73;;;;;;;;;;5030930;28;20037;-70
2023/04/19 03:33:19;;;;;;;28.88;11.57;;;;;;;;;;5034626;28;20055;-70
2023/04/19 03:35:44;;;;;;;30.90;13.02;;;;;;;;;;5031272;28;20104;-70
2023/04/19 03:38:10;;;;;;;35.10;13.65;;;;;;;;;;5034698;28;20083;-70
2023/04/19 03:40:38;;;;;;;31.52;12.32;;;;;;;;;;5030862;28;20044;-70
2023/04/19 03:43:03;;;;;;;32.50;12.98;;;;;;;;;;5042296;28;20868;-70
2023/04/19 03:45:29;;;;;;;30.75;13.20;;;;;;;;;;5030894;28;20102;-70
2023/04/19 03:47:54;;;;;;;33.58;13.63;;;;;;;;;;5031948;28;20465;-70
2023/04/19 03:50:20;;;;;;;31.77;13.55;;;;;;;;;;5037193;28;20120;-70
2023/04/19 03:52:45;;;;;;;30.00;13.23;;;;;;;;;;5036926;28;20061;-70
2023/04/19 03:55:13;;;;;;;31.85;13.10;;;;;;;;;;5051867;28;20025;-70
2023/04/19 03:57:39;;;;;;;32.00;13.55;;;;;;;;;;5045260;28;20031;-70
2023/04/19 04:00:07;;;;;;;28.45;12.98;;;;;;;;;;5034560;28;20025;-70
2023/04/19 04:02:36;;;;;;;33.35;12.77;;;;;;;;;;5045742;28;20696;-70
2023/04/19 04:05:02;;;;;;;33.22;13.77;;;;;;;;;;5043159;28;20044;-70
2023/04/19 04:07:27;;;;;;;33.88;12.70;;;;;;;;;;5038120;28;20040;-70
2023/04/19 04:09:52;;;;;;;31.42;12.95;;;;;;;;;;5039119;28;20037;-70
2023/04/19 04:12:18;;;;;;;31.10;13.82;;;;;;;;;;5026266;28;20052;-70
2023/04/19 04:14:43;;;;;;;30.92;12.52;;;;;;;;;;5025099;28;20022;-70
2023/04/19 04:17:08;;;;;;;31.48;13.23;;;;;;;;;;5045122;28;20786;-70
2023/04/19 04:19:34;;;;;;;25.02;11.23;;;;;;;;;;5044553;28;20033;-70
2023/04/19 04:21:59;;;;;;;31.17;13.82;;;;;;;;;;5038798;28;20072;-70
2023/04/19 04:24:25;;;;;;;31.58;12.63;;;;;;;;;;5045070;28;20035;-70
2023/04/19 04:26:50;;;;;;;32.50;13.25;;;;;;;;;;5038207;28;20029;-70
2023/04/19 04:29:16;;;;;;;32.95;13.10;;;;;;;;;;5043685;28;20838;-70
2023/04/19 04:31:41;;;;;;;29.25;12.68;;;;;;;;;;5044525;28;20040;-70
2023/04/19 04:34:08;;;;;;;33.03;13.60;;;;;;;;;;5044850;28;20063;-70
2023/04/19 04:36:35;;;;;;;31.35;13.95;;;;;;;;;;5045798;28;20049;-70
2023/04/19 04:39:01;;;;;;;28.63;12.85;;;;;;;;;;5029798;28;20051;-70
2023/04/19 04:41:26;;;;;;;32.25;13.40;;;;;;;;;;5035087;28;21022;-70
2023/04/19 04:43:52;;;;;;;33.10;13.20;;;;;;;;;;5045484;28;20040;-70
2023/04/19 04:46:17;;;;;;;33.88;13.45;;;;;;;;;;5045383;28;20076;-70
2023/04/19 04:48:43;;;;;;;33.03;13.15;;;;;;;;;;5045752;28;20391;-70
2023/04/19 04:51:08;;;;;;;29.23;12.18;;;;;;;;;;5045586;28;20107;-70
2023/04/19 04:53:33;;;;;;;31.02;11.75;;;;;;;;;;5045589;28;20037;-69
2023/04/19 04:55:59;;;;;;;33.63;13.27;;;;;;;;;;5027737;28;20037;-70
2023/04/19 04:58:24;;;;;;;29.17;11.77;;;;;;;;;;5025823;28;20045;-70
2023/04/19 05:00:49;;;;;;;33.42;13.23;;;;;;;;;;5025369;28;20128;-70
2023/04/19 05:03:15;;;;;;;30.02;12.10;;;;;;;;;;5037233;28;20032;-70
2023/04/19 05:05:41;;;;;;;32.58;13.07;;;;;;;;;;5033209;28;20056;-70
2023/04/19 05:08:07;;;;;;;28.65;12.20;;;;;;;;;;5045365;28;20040;-70
2023/04/19 05:10:32;;;;;;;27.90;11.77;;;;;;;;;;5043729;28;20043;-70
2023/04/19 05:12:57;;;;;;;30.15;12.90;;;;;;;;;;5045445;28;20036;-70
2023/04/19 05:15:22;;;;;;;32.28;13.00;;;;;;;;;;5043530;28;20283;-70
2023/04/19 05:17:48;;;;;;;26.08;12.00;;;;;;;;;;5040438;28;20392;-70
2023/04/19 05:20:13;;;;;;;30.52;12.63;;;;;;;;;;5041233;28;20034;-70
2023/04/19 05:22:38;;;;;;;28.20;11.43;;;;;;;;;;5035813;28;20041;-70
2023/04/19 05:25:05;;;;;;;27.92;11.48;;;;;;;;;;5038700;28;20037;-70
2023/04/19 05:27:30;;;;;;;23.23;11.02;;;;;;;;;;5043778;28;20159;-70
2023/04/19 05:29:55;;;;;;;24.70;11.05;;;;;;;;;;5049087;28;20036;-70
2023/04/19 05:32:21;;;;;;;27.75;12.38;;;;;;;;;;5035426;28;20049;-70
2023/04/19 05:34:46;;;;;;;29.58;11.98;;;;;;;;;;5046529;28;20492;-70
2023/04/19 05:37:11;;;;;;;29.27;12.35;;;;;;;;;;5046379;28;20037;-70
2023/04/19 05:39:37;;;;;;;31.10;12.90;;;;;;;;;;5048707;28;20040;-71
2023/04/19 05:42:02;;;;;;;27.77;11.50;;;;;;;;;;5048736;28;20457;-70
2023/04/19 05:44:27;;;;;;;32.63;13.82;;;;;;;;;;5045993;28;20059;-71
2023/04/19 05:46:53;;;;;;;29.58;12.02;;;;;;;;;;5033208;28;20792;-70
2023/04/19 05:49:18;;;;;;;34.35;13.73;;;;;;;;;;5041901;28;20040;-70
2023/04/19 05:51:43;;;;;;;35.85;14.38;;;;;;;;;;5028279;28;20148;-70
2023/04/19 05:54:11;;;;;;;29.05;13.40;;;;;;;;;;5029561;28;20904;-70
2023/04/19 05:56:37;;;;;;;25.77;11.02;;;;;;;;;;5028761;28;20447;-70
2023/04/19 05:59:02;;;;;;;29.55;12.40;;;;;;;;;;5028529;28;20064;-70
2023/04/19 06:01:28;;;;;;;31.55;13.60;;;;;;;;;;5029196;28;20506;-70
2023/04/19 06:03:53;;;;;;;27.85;11.48;;;;;;;;;;5028180;28;20115;-70
2023/04/19 06:06:20;;;;;;;27.77;12.90;;;;;;;;;;5037899;28;20434;-70
2023/04/19 06:08:46;;;;;;;29.38;12.63;;;;;;;;;;5032184;28;20029;-70
2023/04/19 06:11:11;;;;;;;28.25;11.65;;;;;;;;;;5031755;28;20045;-70
2023/04/19 06:13:36;;;;;;;30.13;13.02;;;;;;;;;;5043827;28;20045;-71
2023/04/19 06:16:02;;;;;;;28.35;12.35;;;;;;;;;;5042317;28;20040;-71
2023/04/19 06:18:27;;;;;;;27.60;11.82;;;;;;;;;;5038021;28;20029;-70
2023/04/19 06:20:53;;;;;;;27.80;12.02;;;;;;;;;;5028451;28;20022;-71
2023/04/19 06:23:18;;;;;;;38.42;13.77;;;;;;;;;;5028017;28;20045;-71
2023/04/19 06:25:44;;;;;;;36.00;13.77;;;;;;;;;;5041543;28;20036;-71
2023/04/19 06:28:10;;;;;;;27.58;12.02;;;;;;;;;;5044747;28;20075;-71
2023/04/19 06:30:35;;;;;;;30.45;12.73;;;;;;;;;;5045623;28;20040;-70
2023/04/19 06:33:01;;;;;;;29.67;13.45;;;;;;;;;;5046075;28;20150;-71
2023/04/19 06:35:26;;;;;;;26.15;12.52;;;;;;;;;;5046580;28;20076;-71
2023/04/19 06:37:51;;;;;;;33.10;13.13;;;;;;;;;;5033049;28;20041;-70
2023/04/19 06:40:17;;;;;;;28.67;11.90;;;;;;;;;;5054538;28;20558;-70
2023/04/19 06:42:42;;;;;;;28.20;12.43;;;;;;;;;;5044998;28;20485;-71
2023/04/19 06:45:08;;;;;;;25.60;11.57;;;;;;;;;;5047033;28;20595;-70
2023/04/19 06:47:34;;;;;;;27.23;11.98;;;;;;;;;;5034284;28;20086;-70
2023/04/19 06:49:59;;;;;;;28.55;12.95;;;;;;;;;;5045740;28;20086;-71
2023/04/19 06:52:25;;;;;;;29.63;13.00;;;;;;;;;;5033710;28;20032;-70
2023/04/19 06:54:51;;;;;;;29.73;13.48;;;;;;;;;;5044962;28;20041;-70
2023/04/19 06:57:17;;;;;;;27.77;12.32;;;;;;;;;;5043613;28;20866;-70
2023/04/19 06:59:42;;;;;;;27.52;12.70;;;;;;;;;;5047129;28;20107;-70
2023/04/19 07:02:07;;;;;;;28.42;12.35;;;;;;;;;;5044166;28;20033;-70
2023/04/19 07:04:33;;;;;;;22.33;10.55;;;;;;;;;;5036984;28;20118;-71
2023/04/19 07:06:59;;;;;;;26.50;11.15;;;;;;;;;;5045987;28;20041;-70
2023/04/19 07:09:25;;;;;;;23.67;11.18;;;;;;;;;;5044158;28;20032;-70
2023/04/19 07:11:50;;;;;;;18.75;9.13;;;;;;;;;;5033667;28;20514;-70
2023/04/19 07:14:18;;;;;;;26.10;10.98;;;;;;;;;;5035833;28;20517;-71
2023/04/19 07:16:44;;;;;;;29.17;13.32;;;;;;;;;;5042330;28;20079;-70
2023/04/19 07:19:09;;;;;;;20.52;10.75;;;;;;;;;;5033904;28;20057;-70
2023/04/19 07:21:34;;;;;;;23.98;11.07;;;;;;;;;;5032687;28;20488;-70
2023/04/19 07:24:00;;;;;;;23.17;10.13;;;;;;;;;;5046598;28;20021;-70
2023/04/19 07:26:25;;;;;;;25.73;11.68;;;;;;;;;;5044618;28;20048;-70
2023/04/19 07:28:50;;;;;;;26.65;12.23;;;;;;;;;;5046388;28;20494;-71
2023/04/19 07:31:17;;;;;;;27.05;11.82;;;;;;;;;;5032929;28;20472;-70
2023/04/19 07:33:42;;;;;;;20.27;10.25;;;;;;;;;;5046993;28;20415;-70
2023/04/19 07:36:08;;;;;;;24.15;10.98;;;;;;;;;;5044483;28;20094;-70
2023/04/19 07:38:33;;;;;;;22.85;9.98;;;;;;;;;;5030075;28;20106;-70
2023/04/19 07:40:59;;;;;;;22.52;10.93;;;;;;;;;;5037362;28;20438;-70
2023/04/19 07:43:24;;;;;;;24.42;11.55;;;;;;;;;;5039332;28;20033;-71
2023/04/19 07:45:50;;;;;;;17.52;9.02;;;;;;;;;;5032932;28;20033;-71
2023/04/19 07:48:15;;;;;;;25.00;10.30;;;;;;;;;;5040122;28;20071;-70
2023/04/19 07:50:40;;;;;;;24.15;10.73;;;;;;;;;;5040257;28;20144;-70
2023/04/19 07:53:06;;;;;;;24.52;10.82;;;;;;;;;;5039214;28;20104;-70
2023/04/19 07:55:31;;;;;;;22.63;11.00;;;;;;;;;;5041869;28;20094;-70
2023/04/19 07:57:56;;;;;;;22.73;10.75;;;;;;;;;;5038399;28;20041;-70
2023/04/19 08:00:22;;;;;;;19.00;7.50;;;;;;;;;;5046255;28;20021;-70
2023/04/19 08:02:48;;;;;;;21.48;10.45;;;;;;;;;;5044081;28;20418;-70
2023/04/19 08:05:16;;;;;;;17.67;8.25;;;;;;;;;;5033724;28;20041;-70
2023/04/19 08:07:41;;;;;;;20.63;10.25;;;;;;;;;;5038843;28;20087;-70
2023/04/19 08:10:07;;;;;;;21.90;9.23;;;;;;;;;;5040031;28;20889;-70
2023/04/19 08:12:33;;;;;;;19.42;9.13;;;;;;;;;;5042470;28;20086;-70
2023/04/19 08:14:58;;;;;;;20.17;9.55;;;;;;;;;;5044288;28;20040;-70
2023/04/19 08:17:24;;;;;;;21.15;10.68;;;;;;;;;;5040521;28;20040;-70
2023/04/19 08:19:50;;;;;;;20.98;9.82;;;;;;;;;;5040544;28;20025;-70
2023/04/19 08:22:16;;;;;;;22.63;9.52;;;;;;;;;;5038811;28;20522;-69
2023/04/19 08:24:41;;;;;;;21.98;10.63;;;;;;;;;;5041707;28;20432;-70
2023/04/19 08:27:08;;;;;;;18.92;9.20;;;;;;;;;;5042034;28;20521;-70
2023/04/19 08:29:33;;;;;;;21.40;9.65;;;;;;;;;;5043622;28;20029;-70
2023/04/19 08:32:00;;;;;;;19.05;10.15;;;;;;;;;;5040417;28;20041;-70
2023/04/19 08:34:25;;;;;;;21.35;8.70;;;;;;;;;;5037418;28;20037;-70
2023/04/19 08:36:51;;;;;;;18.45;8.95;;;;;;;;;;5043595;28;20095;-70
2023/04/19 08:39:16;;;;;;;21.65;9.18;;;;;;;;;;5040959;28;20068;-70
2023/04/19 08:41:41;;;;;;;17.38;8.30;;;;;;;;;;5040764;28;20032;-69
2023/04/19 08:44:10;;;;;;;19.20;10.13;;;;;;;;;;5036587;28;20037;-70
2023/04/19 08:46:35;;;;;;;26.48;11.38;;;;;;;;;;5036939;28;20549;-69
2023/04/19 08:49:04;;;;;;;21.33;10.60;;;;;;;;;;5041415;28;20818;-69
2023/04/19 08:51:31;;;;;;;22.92;10.40;;;;;;;;;;5038687;28;20047;-69
2023/04/19 08:53:58;;;;;;;19.58;9.02;;;;;;;;;;5042087;28;20040;-69
2023/04/19 08:56:24;;;;;;;22.30;11.00;;;;;;;;;;5040248;28;20128;-70
2023/04/19 08:58:49;;;;;;;17.10;8.80;;;;;;;;;;5040958;28;20037;-70
2023/04/19 09:01:14;;;;;;;17.45;9.07;;;;;;;;;;5036766;28;20551;-70
2023/04/19 09:03:46;;;;;;;20.65;10.60;;;;;;;;;;5043836;28;20465;-69
2023/04/19 09:06:12;;;;;;;19.35;10.25;;;;;;;;;;5041965;28;20080;-70
2023/04/19 09:08:38;;;;;;;22.38;11.45;;;;;;;;;;5039021;28;20064;-70
2023/04/19 09:11:04;;;;;;;19.60;10.70;;;;;;;;;;5040910;28;20140;-70
2023/04/19 09:13:31;;;;;;;19.75;9.90;;;;;;;;;;5043451;28;20833;-70
2023/04/19 09:15:59;;;;;;;16.77;9.32;;;;;;;;;;5041937;28;20170;-71
2023/04/19 09:18:24;;;;;;;14.82;7.15;;;;;;;;;;5040339;28;20021;-71
2023/04/19 09:20:55;;;;;;;16.83;8.75;;;;;;;;;;5043238;28;20013;-70
2023/04/19 09:23:24;;;;;;;13.88;8.02;;;;;;;;;;5044819;28;20183;-71
2023/04/19 09:25:54;;;;;;;17.02;8.65;;;;;;;;;;5045071;28;20044;-72
2023/04/19 09:28:19;;;;;;;17.65;9.48;;;;;;;;;;5034863;28;20033;-71
2023/04/19 09:30:45;;;;;;;17.23;7.70;;;;;;;;;;5040585;28;20036;-70
2023/04/19 09:33:11;;;;;;;17.60;8.52;;;;;;;;;;5036359;28;20103;-70
2023/04/19 09:35:43;;;;;;;15.77;8.93;;;;;;;;;;5047202;28;20214;-70
2023/04/19 09:38:09;;;;;;;15.15;9.05;;;;;;;;;;5046484;28;20040;-70
2023/04/19 09:40:35;;;;;;;15.45;8.50;;;;;;;;;;5044757;28;20037;-70
2023/04/19 09:43:02;;;;;;;14.55;8.63;;;;;;;;;;5036857;28;20052;-70
2023/04/19 09:45:39;;;;;;;14.77;8.02;;;;;;;;;;5044950;28;20060;-70
2023/04/19 09:48:06;;;;;;;14.50;8.35;;;;;;;;;;5047804;28;20120;-70
2023/04/19 09:50:32;;;;;;;18.88;9.35;;;;;;;;;;5047675;28;20067;-70
2023/04/19 09:52:58;;;;;;;15.13;7.57;;;;;;;;;;5046441;28;20122;-70
2023/04/19 09:55:25;;;;;;;17.13;8.23;;;;;;;;;;5037014;28;20064;-70
2023/04/19 09:57:51;;;;;;;14.32;8.25;;;;;;;;;;5045093;28;20087;-69
2023/04/19 10:00:16;;;;;;;12.45;6.72;;;;;;;;;;5046734;28;20025;-69
2023/04/19 10:02:43;;;;;;;12.20;7.40;;;;;;;;;;5039287;28;20124;-71
2023/04/19 10:05:09;;;;;;;14.63;6.82;;;;;;;;;;5030110;28;20045;-69
2023/04/19 10:07:36;;;;;;;15.02;8.10;;;;;;;;;;5026964;28;20040;-70
2023/04/19 10:10:02;;;;;;;14.18;8.07;;;;;;;;;;5028406;28;20029;-71
2023/04/19 10:12:30;;;;;;;12.50;7.05;;;;;;;;;;5047012;28;20033;-69
2023/04/19 10:14:58;;;;;;;17.15;7.97;;;;;;;;;;5033739;28;20021;-68
2023/04/19 10:17:25;;;;;;;13.48;6.80;;;;;;;;;;5040206;28;20071;-70
2023/04/19 10:19:56;;;;;;;13.50;7.55;;;;;;;;;;5041023;28;20029;-69
2023/04/19 10:22:22;;;;;;;14.65;5.88;;;;;;;;;;5047356;28;20029;-69
2023/04/19 10:25:07;;;;;;;13.27;7.25;;;;;;;;;;5033648;28;20568;-69
2023/04/19 10:27:34;;;;;;;14.90;7.45;;;;;;;;;;5046056;28;20040;-70
2023/04/19 10:30:02;;;;;;;13.63;6.90;;;;;;;;;;5033141;28;20020;-69
2023/04/19 10:32:42;;;;;;;12.23;7.70;;;;;;;;;;5031468;28;20041;-69
2023/04/19 10:35:16;;;;;;;12.80;7.35;;;;;;;;;;5037824;28;20037;-70
2023/04/19 10:38:05;;;;;;;10.80;6.35;;;;;;;;;;5033832;28;20025;-69
2023/04/19 10:40:56;;;;;;;14.70;6.90;;;;;;;;;;5032877;28;20530;-69
2023/04/19 10:43:23;;;;;;;12.18;6.22;;;;;;;;;;5041968;28;20502;-69
2023/04/19 10:45:48;;;;;;;9.63;5.90;;;;;;;;;;5046447;28;20120;-69
2023/04/19 10:48:32;;;;;;;9.82;5.50;;;;;;;;;;5041768;28;20132;-69
2023/04/19 10:51:21;;;;;;;8.85;5.75;;;;;;;;;;5044139;28;20115;-69
2023/04/19 10:53:59;;;;;;;12.75;6.65;;;;;;;;;;5040471;28;20120;-69
2023/04/19 10:56:33;;;;;;;12.48;7.13;;;;;;;;;;5026387;28;20079;-70
2023/04/19 10:58:59;;;;;;;12.55;6.10;;;;;;;;;;5040922;28;20040;-69
2023/04/19 11:01:38;;;;;;;10.63;6.05;;;;;;;;;;5045178;28;20033;-70
2023/04/19 11:04:08;;;;;;;11.23;5.93;;;;;;;;;;5041309;28;20057;-69
2023/04/19 11:06:36;;;;;;;11.50;5.55;;;;;;;;;;5038326;28;20047;-70
2023/04/19 11:09:04;;;;;;;8.70;5.40;;;;;;;;;;5027761;28;20130;-69
2023/04/19 11:11:33;;;;;;;11.45;6.35;;;;;;;;;;5027020;28;20040;-69
2023/04/19 11:14:01;;;;;;;10.20;6.38;;;;;;;;;;5040565;28;20056;-69
2023/04/19 11:16:27;;;;;;;11.73;6.03;;;;;;;;;;5045727;28;20243;-69
2023/04/19 11:18:52;;;;;;;14.95;6.30;;;;;;;;;;5030949;28;20575;-69
2023/04/19 11:21:18;;;;;;;11.13;6.30;;;;;;;;;;5043030;28;20552;-69
2023/04/19 11:23:46;;;;;;;6.28;4.25;;;;;;;;;;5039572;28;20474;-69
2023/04/19 11:26:12;;;;;;;8.35;5.10;;;;;;;;;;5037734;28;20048;-69
2023/04/19 11:28:38;;;;;;;11.00;6.32;;;;;;;;;;5036724;28;20042;-69
2023/04/19 11:31:04;;;;;;;10.13;5.93;;;;;;;;;;5025744;28;20037;-69
2023/04/19 11:33:33;;;;;;;11.82;6.53;;;;;;;;;;5026032;28;20033;-70
2023/04/19 11:35:58;;;;;;;11.13;5.82;;;;;;;;;;5029783;28;21038;-69
2023/04/19 11:38:29;;;;;;;10.07;6.35;;;;;;;;;;5034284;28;20132;-69
2023/04/19 11:41:02;;;;;;;12.20;6.70;;;;;;;;;;5037939;28;20041;-69
2023/04/19 11:43:32;;;;;;;10.50;6.53;;;;;;;;;;5025352;28;20041;-69
2023/04/19 11:46:05;;;;;;;12.90;7.68;;;;;;;;;;5025319;28;20541;-69
2023/04/19 11:48:30;;;;;;;13.63;7.70;;;;;;;;;;5038618;28;20536;-69
2023/04/19 11:50:57;;;;;;;12.23;7.30;;;;;;;;;;5045271;28;20154;-69
2023/04/19 11:53:24;;;;;;;7.97;5.80;;;;;;;;;;5045212;28;20049;-69
2023/04/19 11:55:55;;;;;;;11.43;7.47;;;;;;;;;;5041125;28;20482;-69
2023/04/19 11:58:32;;;;;;;14.50;7.88;;;;;;;;;;5025737;28;20478;-69
2023/04/19 12:01:05;;;;;;;12.65;8.30;;;;;;;;;;5040518;28;20033;-69
2023/04/19 12:03:31;;;;;;;12.50;8.00;;;;;;;;;;5042020;28;20123;-69
2023/04/19 12:06:02;;;;;;;12.40;8.02;;;;;;;;;;5038719;28;20061;-70
2023/04/19 12:08:35;;;;;;;12.95;8.45;;;;;;;;;;5041502;28;20045;-69
2023/04/19 12:11:02;;;;;;;12.73;8.25;;;;;;;;;;5043820;28;20061;-70
2023/04/19 12:13:31;;;;;;;13.10;8.30;;;;;;;;;;5039596;28;20533;-70
2023/04/19 12:15:57;;;;;;;15.00;9.02;;;;;;;;;;5042178;28;20115;-69
2023/04/19 12:18:23;;;;;;;14.75;9.60;;;;;;;;;;5045243;28;20454;-70
2023/04/19 12:20:50;;;;;;;16.02;9.68;;;;;;;;;;5037319;28;20095;-70
2023/04/19 12:23:17;;;;;;;15.40;9.68;;;;;;;;;;5037597;28;20703;-70
2023/04/19 12:25:45;;;;;;;14.02;9.02;;;;;;;;;;5042033;28;20596;-70
2023/04/19 12:28:14;;;;;;;12.45;8.82;;;;;;;;;;5044507;28;20447;-70
2023/04/19 12:30:39;;;;;;;13.10;8.15;;;;;;;;;;5030379;28;20033;-70
2023/04/19 12:33:08;;;;;;;10.80;7.75;;;;;;;;;;5044967;28;20035;-69
2023/04/19 12:35:36;;;;;;;10.20;7.63;;;;;;;;;;5041650;28;20044;-70
2023/04/19 12:38:02;;;;;;;10.65;8.20;;;;;;;;;;5024145;28;20095;-70
2023/04/19 12:40:28;;;;;;;10.43;7.50;;;;;;;;;;5038289;28;20040;-70
2023/04/19 12:42:53;;;;;;;13.32;7.50;;;;;;;;;;5041188;28;20093;-70
2023/04/19 12:45:19;;;;;;;13.38;8.27;;;;;;;;;;5044091;28;20051;-70
2023/04/19 12:47:46;;;;;;;13.27;7.90;;;;;;;;;;5040568;28;20025;-70
2023/04/19 12:50:13;;;;;;;15.00;8.00;;;;;;;;;;5044849;28;20128;-70
2023/04/19 12:52:39;;;;;;;13.77;7.43;;;;;;;;;;5033938;28;20079;-70
2023/04/19 12:55:05;;;;;;;17.05;8.95;;;;;;;;;;5033646;28;20049;-71
2023/04/19 12:57:30;;;;;;;18.35;8.90;;;;;;;;;;5042237;28;20036;-70
2023/04/19 12:59:56;;;;;;;15.90;9.77;;;;;;;;;;5044483;28;20029;-70
2023/04/19 13:02:21;;;;;;;20.13;11.20;;;;;;;;;;5041894;28;20037;-70
2023/04/19 13:04:47;;;;;;;15.98;10.05;;;;;;;;;;5032962;28;20538;-70
2023/04/19 13:07:12;;;;;;;19.10;10.73;;;;;;;;;;5028303;28;20029;-70
2023/04/19 13:09:37;;;;;;;13.35;8.20;;;;;;;;;;5042137;28;20128;-70
2023/04/19 13:12:04;;;;;;;17.63;9.07;;;;;;;;;;5044102;28;20021;-70
2023/04/19 13:14:29;;;;;;;16.65;8.50;;;;;;;;;;5033729;28;20037;-70
2023/04/19 13:16:54;;;;;;;19.00;9.25;;;;;;;;;;5038269;28;20039;-70
2023/04/19 13:19:20;;;;;;;50.20;12.40;;;;;;;;;;5024096;28;20060;-70
2023/04/19 13:21:45;;;;;;;14.57;8.43;;;;;;;;;;5025509;28;20429;-70
2023/04/19 13:24:11;;;;;;;14.90;9.95;;;;;;;;;;5045168;28;20107;-70
2023/04/19 13:26:36;;;;;;;14.68;7.97;;;;;;;;;;5047384;28;20033;-70
2023/04/19 13:29:02;;;;;;;17.13;7.45;;;;;;;;;;5048106;28;20033;-70
2023/04/19 13:31:27;;;;;;;10.25;7.25;;;;;;;;;;5025363;28;20049;-70
2023/04/19 13:33:53;;;;;;;14.50;8.63;;;;;;;;;;5037780;28;20391;-70
2023/04/19 13:36:19;;;;;;;12.30;7.85;;;;;;;;;;5032995;28;20464;-70
2023/04/19 13:38:45;;;;;;;13.20;8.20;;;;;;;;;;5029428;28;20021;-70
2023/04/19 13:41:10;;;;;;;16.10;8.25;;;;;;;;;;5044135;28;20033;-70
2023/04/19 13:43:36;;;;;;;19.65;8.70;;;;;;;;;;5031120;28;20036;-70
2023/04/19 13:46:01;;;;;;;14.07;8.73;;;;;;;;;;5034144;28;20426;-70
2023/04/19 13:48:27;;;;;;;14.35;7.57;;;;;;;;;;5036040;28;20060;-70
2023/04/19 13:50:54;;;;;;;14.30;8.18;;;;;;;;;;5044123;28;20462;-70
2023/04/19 13:53:19;;;;;;;13.75;7.15;;;;;;;;;;5033962;28;20489;-70
2023/04/19 13:55:45;;;;;;;11.80;6.97;;;;;;;;;;5044955;28;20049;-70
2023/04/19 13:58:10;;;;;;;12.88;7.00;;;;;;;;;;5047231;28;20037;-70
2023/04/19 14:00:36;;;;;;;11.45;6.32;;;;;;;;;;5031247;28;20124;-70
2023/04/19 14:03:01;;;;;;;12.15;6.80;;;;;;;;;;5044763;28;20029;-70
2023/04/19 14:05:26;;;;;;;10.98;6.72;;;;;;;;;;5030590;28;20324;-70
2023/04/19 14:07:52;;;;;;;10.15;6.30;;;;;;;;;;5027739;28;20040;-70
2023/04/19 14:10:18;;;;;;;10.30;6.63;;;;;;;;;;5041233;28;20059;-70
2023/04/19 14:12:43;;;;;;;11.30;7.50;;;;;;;;;;5047637;28;20049;-70
2023/04/19 14:15:10;;;;;;;15.30;7.43;;;;;;;;;;5043858;28;20059;-70
2023/04/19 14:17:35;;;;;;;17.33;6.53;;;;;;;;;;5044063;28;20033;-70
2023/04/19 14:20:00;;;;;;;9.43;6.50;;;;;;;;;;5044285;28;20021;-70